sensor_id;sensor_type;location;lat;lon;timestamp;pressure;altitude;pressure_sealevel;temperature;humidity
31331;BME280;34067;39.548;-76.088;2023-04-28T00:01:39;101895.82;;;13.27;87.70
31331;BME280;34067;39.548;-76.088;2023-04-28T00:04:07;101900.81;;;12.19;85.78
31331;BME280;34067;39.548;-76.088;2023-04-28T00:06:35;101898.04;;;13.08;83.25
31331;BME280;34067;39.548;-76.088;2023-04-28T00:09:03;101899.92;;;12.59;84.55
31331;BME280;34067;39.548;-76.088;2023-04-28T00:11:31;101905.38;;;13.51;83.13
31331;BME280;34067;39.548;-76.088;2023-04-28T00:13:58;101910.47;;;13.93;82.32
31331;BME280;34067;39.548;-76.088;2023-04-28T00:16:26;101917.40;;;13.80;81.36
31331;BME280;34067;39.548;-76.088;2023-04-28T00:18:54;101927.97;;;13.77;79.91
31331;BME280;34067;39.548;-76.088;2023-04-28T00:21:21;101929.33;;;14.12;80.90
31331;BME280;34067;39.548;-76.088;2023-04-28T00:23:50;101920.16;;;14.25;80.11
31331;BME280;34067;39.548;-76.088;2023-04-28T00:26:18;101919.22;;;14.33;81.29
31331;BME280;34067;39.548;-76.088;2023-04-28T00:28:46;101916.23;;;13.96;80.82
31331;BME280;34067;39.548;-76.088;2023-04-28T00:31:15;101921.13;;;13.71;82.28
31331;BME280;34067;39.548;-76.088;2023-04-28T00:33:43;101936.37;;;13.22;81.39
31331;BME280;34067;39.548;-76.088;2023-04-28T00:36:11;101940.64;;;13.99;82.68
31331;BME280;34067;39.548;-76.088;2023-04-28T00:38:39;101938.99;;;13.62;83.13
31331;BME280;34067;39.548;-76.088;2023-04-28T00:41:09;101935.27;;;12.92;82.88
31331;BME280;34067;39.548;-76.088;2023-04-28T00:43:45;101936.28;;;12.39;85.58
31331;BME280;34067;39.548;-76.088;2023-04-28T00:46:19;101922.51;;;13.76;81.19
31331;BME280;34067;39.548;-76.088;2023-04-28T00:48:48;101935.40;;;12.46;83.78
31331;BME280;34067;39.548;-76.088;2023-04-28T00:51:16;101940.50;;;12.47;84.35
31331;BME280;34067;39.548;-76.088;2023-04-28T00:53:44;101932.48;;;12.09;86.97
31331;BME280;34067;39.548;-76.088;2023-04-28T00:56:12;101932.87;;;12.52;85.54
31331;BME280;34067;39.548;-76.088;2023-04-28T00:58:41;101927.28;;;13.31;82.47
31331;BME280;34067;39.548;-76.088;2023-04-28T01:01:09;101938.30;;;13.60;82.71
31331;BME280;34067;39.548;-76.088;2023-04-28T01:03:38;101942.32;;;13.68;81.19
31331;BME280;34067;39.548;-76.088;2023-04-28T01:06:08;101946.73;;;12.77;82.20
31331;BME280;34067;39.548;-76.088;2023-04-28T01:08:37;101954.81;;;13.81;80.45
31331;BME280;34067;39.548;-76.088;2023-04-28T01:11:05;101956.64;;;13.27;80.34
31331;BME280;34067;39.548;-76.088;2023-04-28T01:13:33;101962.52;;;13.15;81.61
31331;BME280;34067;39.548;-76.088;2023-04-28T01:16:02;101960.19;;;13.69;79.78
31331;BME280;34067;39.548;-76.088;2023-04-28T01:18:30;101958.65;;;14.07;79.39
31331;BME280;34067;39.548;-76.088;2023-04-28T01:20:58;101957.40;;;14.27;76.13
31331;BME280;34067;39.548;-76.088;2023-04-28T01:23:27;101958.51;;;14.06;77.84
31331;BME280;34067;39.548;-76.088;2023-04-28T01:25:54;101963.88;;;13.97;75.67
31331;BME280;34067;39.548;-76.088;2023-04-28T01:28:23;101963.89;;;13.73;76.67
31331;BME280;34067;39.548;-76.088;2023-04-28T01:30:50;101967.70;;;13.95;75.63
31331;BME280;34067;39.548;-76.088;2023-04-28T01:33:18;101972.03;;;13.24;79.98
31331;BME280;34067;39.548;-76.088;2023-04-28T01:35:47;101983.15;;;12.52;81.74
31331;BME280;34067;39.548;-76.088;2023-04-28T01:38:14;101982.91;;;12.41;85.78
31331;BME280;34067;39.548;-76.088;2023-04-28T01:40:42;101979.74;;;13.02;84.63
31331;BME280;34067;39.548;-76.088;2023-04-28T01:43:11;101982.18;;;12.81;85.07
31331;BME280;34067;39.548;-76.088;2023-04-28T01:45:39;101983.15;;;12.14;91.46
31331;BME280;34067;39.548;-76.088;2023-04-28T01:48:07;101979.04;;;12.68;88.20
31331;BME280;34067;39.548;-76.088;2023-04-28T01:50:36;101981.40;;;11.68;91.07
31331;BME280;34067;39.548;-76.088;2023-04-28T01:53:04;101980.13;;;11.18;94.72
31331;BME280;34067;39.548;-76.088;2023-04-28T01:55:33;101977.07;;;12.27;91.69
31331;BME280;34067;39.548;-76.088;2023-04-28T01:58:01;101979.11;;;12.00;91.74
31331;BME280;34067;39.548;-76.088;2023-04-28T02:00:29;101979.83;;;12.34;88.55
31331;BME280;34067;39.548;-76.088;2023-04-28T02:02:57;101992.35;;;11.51;90.71
31331;BME280;34067;39.548;-76.088;2023-04-28T02:05:26;101992.51;;;11.64;95.30
31331;BME280;34067;39.548;-76.088;2023-04-28T02:07:54;102002.38;;;12.79;89.29
31331;BME280;34067;39.548;-76.088;2023-04-28T02:10:22;102009.28;;;12.36;91.16
31331;BME280;34067;39.548;-76.088;2023-04-28T02:12:51;102011.46;;;11.99;88.51
31331;BME280;34067;39.548;-76.088;2023-04-28T02:15:19;102011.18;;;12.57;88.12
31331;BME280;34067;39.548;-76.088;2023-04-28T02:17:47;102011.74;;;10.87;92.97
31331;BME280;34067;39.548;-76.088;2023-04-28T02:20:15;102008.00;;;12.52;87.28
31331;BME280;34067;39.548;-76.088;2023-04-28T02:22:43;102004.89;;;11.68;89.46
31331;BME280;34067;39.548;-76.088;2023-04-28T02:25:11;101996.74;;;11.58;92.94
31331;BME280;34067;39.548;-76.088;2023-04-28T02:27:39;101989.01;;;12.14;88.84
31331;BME280;34067;39.548;-76.088;2023-04-28T02:30:08;101984.25;;;11.13;90.39
31331;BME280;34067;39.548;-76.088;2023-04-28T02:32:36;101977.56;;;11.76;86.98
31331;BME280;34067;39.548;-76.088;2023-04-28T02:35:05;101979.42;;;11.30;88.85
31331;BME280;34067;39.548;-76.088;2023-04-28T02:37:33;101982.71;;;11.81;85.38
31331;BME280;34067;39.548;-76.088;2023-04-28T02:40:00;101974.34;;;11.28;87.41
31331;BME280;34067;39.548;-76.088;2023-04-28T02:42:29;101973.64;;;11.53;90.82
31331;BME280;34067;39.548;-76.088;2023-04-28T02:44:56;101968.19;;;10.80;89.58
31331;BME280;34067;39.548;-76.088;2023-04-28T02:47:24;101968.13;;;11.51;87.11
31331;BME280;34067;39.548;-76.088;2023-04-28T02:49:52;101968.42;;;10.70;91.79
31331;BME280;34067;39.548;-76.088;2023-04-28T02:52:21;101977.41;;;11.56;92.97
31331;BME280;34067;39.548;-76.088;2023-04-28T02:54:49;101985.16;;;11.04;94.46
31331;BME280;34067;39.548;-76.088;2023-04-28T02:57:17;101986.39;;;10.96;90.90
31331;BME280;34067;39.548;-76.088;2023-04-28T02:59:45;101991.75;;;11.68;92.00
31331;BME280;34067;39.548;-76.088;2023-04-28T03:02:14;101986.30;;;11.66;88.28
31331;BME280;34067;39.548;-76.088;2023-04-28T03:04:42;101985.48;;;10.94;90.95
31331;BME280;34067;39.548;-76.088;2023-04-28T03:07:10;101991.86;;;11.51;89.30
31331;BME280;34067;39.548;-76.088;2023-04-28T03:09:38;101996.02;;;11.81;87.84
31331;BME280;34067;39.548;-76.088;2023-04-28T03:12:06;101998.73;;;11.20;89.33
31331;BME280;34067;39.548;-76.088;2023-04-28T03:14:34;101995.17;;;11.72;86.72
31331;BME280;34067;39.548;-76.088;2023-04-28T03:17:02;101995.01;;;11.04;90.81
31331;BME280;34067;39.548;-76.088;2023-04-28T03:19:30;102000.45;;;10.64;94.31
31331;BME280;34067;39.548;-76.088;2023-04-28T03:21:59;102006.56;;;11.55;91.81
31331;BME280;34067;39.548;-76.088;2023-04-28T03:24:27;102009.36;;;11.48;91.44
31331;BME280;34067;39.548;-76.088;2023-04-28T03:26:55;102001.57;;;10.46;90.37
31331;BME280;34067;39.548;-76.088;2023-04-28T03:29:23;102000.70;;;11.33;91.77
31331;BME280;34067;39.548;-76.088;2023-04-28T03:31:51;102004.12;;;10.34;89.91
31331;BME280;34067;39.548;-76.088;2023-04-28T03:34:19;102003.76;;;10.99;89.02
31331;BME280;34067;39.548;-76.088;2023-04-28T03:36:47;101992.20;;;11.21;87.16
31331;BME280;34067;39.548;-76.088;2023-04-28T03:39:14;101996.04;;;11.90;84.81
31331;BME280;34067;39.548;-76.088;2023-04-28T03:41:43;101994.25;;;11.36;84.24
31331;BME280;34067;39.548;-76.088;2023-04-28T03:44:11;101989.76;;;11.16;84.66
31331;BME280;34067;39.548;-76.088;2023-04-28T03:46:39;101991.19;;;10.76;89.76
31331;BME280;34067;39.548;-76.088;2023-04-28T03:49:07;101994.86;;;11.38;90.73
31331;BME280;34067;39.548;-76.088;2023-04-28T03:51:35;101992.73;;;11.54;87.28
31331;BME280;34067;39.548;-76.088;2023-04-28T03:54:03;101985.72;;;10.63;88.38
31331;BME280;34067;39.548;-76.088;2023-04-28T03:56:31;101982.37;;;11.50;84.71
31331;BME280;34067;39.548;-76.088;2023-04-28T03:58:59;101980.15;;;11.17;83.31
31331;BME280;34067;39.548;-76.088;2023-04-28T04:01:27;101978.11;;;10.86;85.39
31331;BME280;34067;39.548;-76.088;2023-04-28T04:03:55;101973.17;;;11.55;86.25
31331;BME280;34067;39.548;-76.088;2023-04-28T04:06:23;101976.16;;;10.82;87.75
31331;BME280;34067;39.548;-76.088;2023-04-28T04:08:51;101975.03;;;11.31;87.51
31331;BME280;34067;39.548;-76.088;2023-04-28T04:11:19;101981.45;;;9.79;92.47
31331;BME280;34067;39.548;-76.088;2023-04-28T04:13:48;101983.94;;;10.86;87.99
31331;BME280;34067;39.548;-76.088;2023-04-28T04:16:16;101976.19;;;11.76;88.22
31331;BME280;34067;39.548;-76.088;2023-04-28T04:18:44;101980.24;;;10.80;90.40
31331;BME280;34067;39.548;-76.088;2023-04-28T04:21:12;101984.87;;;10.63;90.94
31331;BME280;34067;39.548;-76.088;2023-04-28T04:23:40;101978.18;;;10.83;88.61
31331;BME280;34067;39.548;-76.088;2023-04-28T04:26:08;101982.11;;;10.94;91.88
31331;BME280;34067;39.548;-76.088;2023-04-28T04:28:36;101982.86;;;10.42;93.48
31331;BME280;34067;39.548;-76.088;2023-04-28T04:31:04;101982.01;;;11.23;88.93
31331;BME280;34067;39.548;-76.088;2023-04-28T04:33:32;101976.15;;;11.54;89.48
31331;BME280;34067;39.548;-76.088;2023-04-28T04:36:00;101977.28;;;11.31;88.84
31331;BME280;34067;39.548;-76.088;2023-04-28T04:38:28;101974.04;;;11.36;88.93
31331;BME280;34067;39.548;-76.088;2023-04-28T04:40:56;101975.22;;;11.29;85.24
31331;BME280;34067;39.548;-76.088;2023-04-28T04:43:25;101970.16;;;11.71;88.99
31331;BME280;34067;39.548;-76.088;2023-04-28T04:45:52;101970.15;;;11.52;85.98
31331;BME280;34067;39.548;-76.088;2023-04-28T04:48:20;101973.01;;;11.26;86.58
31331;BME280;34067;39.548;-76.088;2023-04-28T04:50:49;101974.46;;;11.49;88.70
31331;BME280;34067;39.548;-76.088;2023-04-28T04:53:17;101979.80;;;12.07;85.35
31331;BME280;34067;39.548;-76.088;2023-04-28T04:55:44;101974.96;;;11.51;84.59
31331;BME280;34067;39.548;-76.088;2023-04-28T04:58:12;101969.97;;;11.48;84.21
31331;BME280;34067;39.548;-76.088;2023-04-28T05:03:10;101965.41;;;12.17;81.67
31331;BME280;34067;39.548;-76.088;2023-04-28T05:05:38;101967.05;;;11.81;81.29
31331;BME280;34067;39.548;-76.088;2023-04-28T05:08:06;101960.98;;;11.79;82.15
31331;BME280;34067;39.548;-76.088;2023-04-28T05:10:34;101959.76;;;12.08;81.94
31331;BME280;34067;39.548;-76.088;2023-04-28T05:13:02;101954.91;;;12.53;80.10
31331;BME280;34067;39.548;-76.088;2023-04-28T05:15:30;101953.55;;;12.24;82.37
31331;BME280;34067;39.548;-76.088;2023-04-28T05:17:58;101952.28;;;11.51;81.03
31331;BME280;34067;39.548;-76.088;2023-04-28T05:20:26;101947.46;;;12.10;79.02
31331;BME280;34067;39.548;-76.088;2023-04-28T05:22:54;101947.12;;;11.90;80.42
31331;BME280;34067;39.548;-76.088;2023-04-28T05:25:22;101946.11;;;12.00;80.87
31331;BME280;34067;39.548;-76.088;2023-04-28T05:27:50;101942.74;;;12.15;79.72
31331;BME280;34067;39.548;-76.088;2023-04-28T05:30:18;101939.89;;;12.47;77.65
31331;BME280;34067;39.548;-76.088;2023-04-28T05:32:46;101927.37;;;12.10;80.51
31331;BME280;34067;39.548;-76.088;2023-04-28T05:35:15;101918.22;;;10.72;85.28
31331;BME280;34067;39.548;-76.088;2023-04-28T05:37:43;101916.52;;;11.19;85.46
31331;BME280;34067;39.548;-76.088;2023-04-28T05:40:11;101913.04;;;11.90;86.98
31331;BME280;34067;39.548;-76.088;2023-04-28T05:42:39;101913.91;;;10.96;86.96
31331;BME280;34067;39.548;-76.088;2023-04-28T05:45:08;101918.99;;;11.27;94.43
31331;BME280;34067;39.548;-76.088;2023-04-28T05:47:36;101914.06;;;10.29;91.03
31331;BME280;34067;39.548;-76.088;2023-04-28T05:50:04;101915.87;;;10.87;91.32
31331;BME280;34067;39.548;-76.088;2023-04-28T05:52:32;101914.21;;;10.97;86.91
31331;BME280;34067;39.548;-76.088;2023-04-28T05:55:01;101916.79;;;10.24;92.37
31331;BME280;34067;39.548;-76.088;2023-04-28T05:57:28;101911.12;;;11.20;89.53
31331;BME280;34067;39.548;-76.088;2023-04-28T05:59:56;101903.48;;;11.07;86.23
31331;BME280;34067;39.548;-76.088;2023-04-28T06:02:25;101900.73;;;11.07;88.70
31331;BME280;34067;39.548;-76.088;2023-04-28T06:04:53;101900.55;;;10.98;86.29
31331;BME280;34067;39.548;-76.088;2023-04-28T06:07:21;101902.17;;;12.19;82.69
31331;BME280;34067;39.548;-76.088;2023-04-28T06:09:49;101896.47;;;11.22;85.79
31331;BME280;34067;39.548;-76.088;2023-04-28T06:12:17;101896.06;;;12.22;84.11
31331;BME280;34067;39.548;-76.088;2023-04-28T06:14:45;101894.60;;;11.82;90.14
31331;BME280;34067;39.548;-76.088;2023-04-28T06:17:13;101891.04;;;12.52;85.00
31331;BME280;34067;39.548;-76.088;2023-04-28T06:19:41;101887.52;;;11.74;85.71
31331;BME280;34067;39.548;-76.088;2023-04-28T06:22:09;101883.81;;;12.60;83.58
31331;BME280;34067;39.548;-76.088;2023-04-28T06:24:37;101878.91;;;11.16;87.79
31331;BME280;34067;39.548;-76.088;2023-04-28T06:27:05;101880.76;;;11.67;84.06
31331;BME280;34067;39.548;-76.088;2023-04-28T06:29:33;101880.07;;;11.25;83.08
31331;BME280;34067;39.548;-76.088;2023-04-28T06:32:01;101881.04;;;12.59;78.96
31331;BME280;34067;39.548;-76.088;2023-04-28T06:34:29;101885.65;;;11.54;83.90
31331;BME280;34067;39.548;-76.088;2023-04-28T06:36:58;101882.73;;;12.10;83.98
31331;BME280;34067;39.548;-76.088;2023-04-28T06:39:26;101882.62;;;11.92;84.11
31331;BME280;34067;39.548;-76.088;2023-04-28T06:41:54;101878.90;;;11.03;87.44
31331;BME280;34067;39.548;-76.088;2023-04-28T06:44:22;101879.11;;;11.41;84.81
31331;BME280;34067;39.548;-76.088;2023-04-28T06:46:51;101871.68;;;11.20;86.64
31331;BME280;34067;39.548;-76.088;2023-04-28T06:49:19;101872.66;;;12.37;83.45
31331;BME280;34067;39.548;-76.088;2023-04-28T06:51:47;101874.08;;;10.81;83.20
31331;BME280;34067;39.548;-76.088;2023-04-28T06:54:15;101875.93;;;11.72;85.85
31331;BME280;34067;39.548;-76.088;2023-04-28T06:56:43;101880.83;;;12.65;82.27
31331;BME280;34067;39.548;-76.088;2023-04-28T06:59:11;101878.11;;;11.64;82.50
31331;BME280;34067;39.548;-76.088;2023-04-28T07:01:39;101879.24;;;12.07;81.63
31331;BME280;34067;39.548;-76.088;2023-04-28T07:04:07;101876.35;;;11.75;79.92
31331;BME280;34067;39.548;-76.088;2023-04-28T07:06:35;101875.27;;;12.24;78.29
31331;BME280;34067;39.548;-76.088;2023-04-28T07:09:04;101863.56;;;11.53;81.78
31331;BME280;34067;39.548;-76.088;2023-04-28T07:11:31;101863.48;;;10.92;82.72
31331;BME280;34067;39.548;-76.088;2023-04-28T07:14:00;101867.73;;;11.95;79.56
31331;BME280;34067;39.548;-76.088;2023-04-28T07:16:28;101864.28;;;11.31;82.52
31331;BME280;34067;39.548;-76.088;2023-04-28T07:18:57;101870.39;;;11.41;80.70
31331;BME280;34067;39.548;-76.088;2023-04-28T07:21:25;101871.40;;;11.87;78.52
31331;BME280;34067;39.548;-76.088;2023-04-28T07:23:53;101864.52;;;11.92;79.21
31331;BME280;34067;39.548;-76.088;2023-04-28T07:26:21;101859.30;;;11.79;77.16
31331;BME280;34067;39.548;-76.088;2023-04-28T07:28:49;101855.78;;;11.55;75.15
31331;BME280;34067;39.548;-76.088;2023-04-28T07:31:17;101852.46;;;11.96;76.78
31331;BME280;34067;39.548;-76.088;2023-04-28T07:33:45;101844.85;;;12.27;73.88
31331;BME280;34067;39.548;-76.088;2023-04-28T07:36:13;101842.61;;;11.04;77.85
31331;BME280;34067;39.548;-76.088;2023-04-28T07:38:42;101840.23;;;11.09;74.50
31331;BME280;34067;39.548;-76.088;2023-04-28T07:41:10;101842.30;;;11.07;76.97
31331;BME280;34067;39.548;-76.088;2023-04-28T07:43:39;101834.33;;;10.73;77.43
31331;BME280;34067;39.548;-76.088;2023-04-28T07:46:07;101837.20;;;11.02;75.86
31331;BME280;34067;39.548;-76.088;2023-04-28T07:48:35;101835.01;;;11.50;76.04
31331;BME280;34067;39.548;-76.088;2023-04-28T07:51:02;101832.83;;;12.37;73.03
31331;BME280;34067;39.548;-76.088;2023-04-28T07:53:31;101829.03;;;11.45;74.66
31331;BME280;34067;39.548;-76.088;2023-04-28T07:55:59;101826.78;;;11.13;74.30
31331;BME280;34067;39.548;-76.088;2023-04-28T07:58:27;101821.03;;;10.80;78.19
31331;BME280;34067;39.548;-76.088;2023-04-28T08:00:55;101818.18;;;11.00;75.85
31331;BME280;34067;39.548;-76.088;2023-04-28T08:03:23;101816.01;;;11.12;74.26
31331;BME280;34067;39.548;-76.088;2023-04-28T08:05:51;101820.25;;;11.48;74.36
31331;BME280;34067;39.548;-76.088;2023-04-28T08:08:19;101817.35;;;11.93;74.32
31331;BME280;34067;39.548;-76.088;2023-04-28T08:10:47;101818.10;;;11.13;73.23
31331;BME280;34067;39.548;-76.088;2023-04-28T08:13:15;101816.58;;;11.00;71.07
31331;BME280;34067;39.548;-76.088;2023-04-28T08:15:43;101815.93;;;12.26;70.85
31331;BME280;34067;39.548;-76.088;2023-04-28T08:18:11;101812.71;;;12.21;69.41
31331;BME280;34067;39.548;-76.088;2023-04-28T08:20:40;101812.24;;;12.38;67.68
31331;BME280;34067;39.548;-76.088;2023-04-28T08:23:08;101811.65;;;11.61;69.36
31331;BME280;34067;39.548;-76.088;2023-04-28T08:25:36;101812.06;;;11.68;71.45
31331;BME280;34067;39.548;-76.088;2023-04-28T08:28:04;101805.82;;;12.12;72.22
31331;BME280;34067;39.548;-76.088;2023-04-28T08:30:33;101804.46;;;10.93;74.43
31331;BME280;34067;39.548;-76.088;2023-04-28T08:33:01;101806.65;;;10.79;74.17
31331;BME280;34067;39.548;-76.088;2023-04-28T08:35:29;101804.81;;;10.21;77.18
31331;BME280;34067;39.548;-76.088;2023-04-28T08:37:57;101801.76;;;10.54;76.78
31331;BME280;34067;39.548;-76.088;2023-04-28T08:40:25;101806.65;;;10.57;76.86
31331;BME280;34067;39.548;-76.088;2023-04-28T08:42:54;101803.24;;;10.87;76.29
31331;BME280;34067;39.548;-76.088;2023-04-28T08:45:23;101800.50;;;11.38;75.10
31331;BME280;34067;39.548;-76.088;2023-04-28T08:47:51;101802.22;;;10.72;75.80
31331;BME280;34067;39.548;-76.088;2023-04-28T08:50:21;101802.71;;;11.30;75.15
31331;BME280;34067;39.548;-76.088;2023-04-28T08:52:52;101801.04;;;10.87;74.41
31331;BME280;34067;39.548;-76.088;2023-04-28T08:55:21;101798.23;;;11.33;73.60
31331;BME280;34067;39.548;-76.088;2023-04-28T08:57:49;101789.75;;;11.27;75.30
31331;BME280;34067;39.548;-76.088;2023-04-28T09:00:18;101787.91;;;10.32;75.58
31331;BME280;34067;39.548;-76.088;2023-04-28T09:02:45;101780.59;;;11.39;76.24
31331;BME280;34067;39.548;-76.088;2023-04-28T09:05:13;101781.14;;;10.43;74.03
31331;BME280;34067;39.548;-76.088;2023-04-28T09:07:45;101780.64;;;10.52;76.92
31331;BME280;34067;39.548;-76.088;2023-04-28T09:10:19;101772.42;;;10.38;78.32
31331;BME280;34067;39.548;-76.088;2023-04-28T09:12:49;101772.81;;;11.05;77.07
31331;BME280;34067;39.548;-76.088;2023-04-28T09:15:28;101772.04;;;11.28;73.62
31331;BME280;34067;39.548;-76.088;2023-04-28T09:17:56;101768.14;;;11.01;74.90
31331;BME280;34067;39.548;-76.088;2023-04-28T09:20:26;101763.28;;;11.16;74.57
31331;BME280;34067;39.548;-76.088;2023-04-28T09:22:56;101765.14;;;10.55;77.00
31331;BME280;34067;39.548;-76.088;2023-04-28T09:25:39;101764.19;;;10.30;77.46
31331;BME280;34067;39.548;-76.088;2023-04-28T09:28:19;101764.54;;;10.12;82.80
31331;BME280;34067;39.548;-76.088;2023-04-28T09:30:48;101757.07;;;9.90;80.04
31331;BME280;34067;39.548;-76.088;2023-04-28T09:33:16;101752.46;;;10.84;77.09
31331;BME280;34067;39.548;-76.088;2023-04-28T09:35:45;101747.01;;;10.81;75.62
31331;BME280;34067;39.548;-76.088;2023-04-28T09:38:13;101748.22;;;9.60;79.63
31331;BME280;34067;39.548;-76.088;2023-04-28T09:40:58;101746.07;;;11.04;78.17
31331;BME280;34067;39.548;-76.088;2023-04-28T09:43:28;101745.01;;;10.66;76.82
31331;BME280;34067;39.548;-76.088;2023-04-28T09:45:57;101746.26;;;11.54;75.12
31331;BME280;34067;39.548;-76.088;2023-04-28T09:48:27;101740.08;;;10.36;76.94
31331;BME280;34067;39.548;-76.088;2023-04-28T09:50:56;101738.48;;;11.12;77.16
31331;BME280;34067;39.548;-76.088;2023-04-28T09:53:24;101732.73;;;11.36;75.32
31331;BME280;34067;39.548;-76.088;2023-04-28T09:55:53;101725.54;;;11.19;75.19
31331;BME280;34067;39.548;-76.088;2023-04-28T09:58:24;101729.28;;;11.97;73.19
31331;BME280;34067;39.548;-76.088;2023-04-28T10:00:54;101735.04;;;10.69;75.54
31331;BME280;34067;39.548;-76.088;2023-04-28T10:03:23;101735.40;;;10.67;77.85
31331;BME280;34067;39.548;-76.088;2023-04-28T10:05:51;101733.09;;;11.27;73.24
31331;BME280;34067;39.548;-76.088;2023-04-28T10:08:19;101734.41;;;10.29;76.28
31331;BME280;34067;39.548;-76.088;2023-04-28T10:10:49;101735.60;;;12.05;76.74
31331;BME280;34067;39.548;-76.088;2023-04-28T10:13:18;101733.07;;;12.14;73.98
31331;BME280;34067;39.548;-76.088;2023-04-28T10:15:47;101735.48;;;11.38;73.11
31331;BME280;34067;39.548;-76.088;2023-04-28T10:18:15;101741.61;;;10.64;75.79
31331;BME280;34067;39.548;-76.088;2023-04-28T10:20:45;101738.13;;;11.24;75.01
31331;BME280;34067;39.548;-76.088;2023-04-28T10:23:49;101737.22;;;11.21;77.30
31331;BME280;34067;39.548;-76.088;2023-04-28T10:26:33;101737.11;;;10.09;80.49
31331;BME280;34067;39.548;-76.088;2023-04-28T10:29:03;101733.41;;;11.25;78.75
31331;BME280;34067;39.548;-76.088;2023-04-28T10:31:31;101737.06;;;10.86;78.53
31331;BME280;34067;39.548;-76.088;2023-04-28T10:34:21;101737.31;;;10.48;79.13
31331;BME280;34067;39.548;-76.088;2023-04-28T10:36:51;101730.67;;;11.34;79.55
31331;BME280;34067;39.548;-76.088;2023-04-28T10:39:19;101726.70;;;10.99;80.55
31331;BME280;34067;39.548;-76.088;2023-04-28T10:41:48;101728.68;;;11.06;79.87
31331;BME280;34067;39.548;-76.088;2023-04-28T10:44:48;101730.98;;;11.14;77.37
31331;BME280;34067;39.548;-76.088;2023-04-28T10:47:16;101730.60;;;10.88;78.65
31331;BME280;34067;39.548;-76.088;2023-04-28T10:50:16;101730.85;;;10.86;79.34
31331;BME280;34067;39.548;-76.088;2023-04-28T10:52:51;101725.91;;;9.83;83.69
31331;BME280;34067;39.548;-76.088;2023-04-28T10:55:29;101725.51;;;10.36;83.93
31331;BME280;34067;39.548;-76.088;2023-04-28T10:59:24;101719.47;;;10.32;83.02
31331;BME280;34067;39.548;-76.088;2023-04-28T11:01:52;101719.48;;;10.75;83.80
31331;BME280;34067;39.548;-76.088;2023-04-28T11:04:20;101718.58;;;10.73;86.43
31331;BME280;34067;39.548;-76.088;2023-04-28T11:07:09;101724.00;;;10.62;85.56
31331;BME280;34067;39.548;-76.088;2023-04-28T11:09:53;101720.25;;;10.51;84.44
31331;BME280;34067;39.548;-76.088;2023-04-28T11:12:21;101719.91;;;10.16;82.60
31331;BME280;34067;39.548;-76.088;2023-04-28T11:14:49;101721.63;;;10.49;85.91
31331;BME280;34067;39.548;-76.088;2023-04-28T11:17:18;101724.98;;;10.02;86.06
31331;BME280;34067;39.548;-76.088;2023-04-28T11:20:04;101730.60;;;10.92;85.51
31331;BME280;34067;39.548;-76.088;2023-04-28T11:22:32;101730.13;;;10.73;84.58
31331;BME280;34067;39.548;-76.088;2023-04-28T11:25:01;101730.85;;;10.74;82.80
31331;BME280;34067;39.548;-76.088;2023-04-28T11:27:31;101729.81;;;10.97;82.36
31331;BME280;34067;39.548;-76.088;2023-04-28T11:29:59;101726.58;;;10.17;88.40
31331;BME280;34067;39.548;-76.088;2023-04-28T11:32:28;101722.32;;;10.62;86.95
31331;BME280;34067;39.548;-76.088;2023-04-28T11:34:56;101720.50;;;10.01;87.03
31331;BME280;34067;39.548;-76.088;2023-04-28T11:37:24;101721.40;;;9.70;88.28
31331;BME280;34067;39.548;-76.088;2023-04-28T11:39:52;101720.62;;;9.74;88.49
31331;BME280;34067;39.548;-76.088;2023-04-28T11:42:21;101721.16;;;10.46;86.89
31331;BME280;34067;39.548;-76.088;2023-04-28T11:44:50;101717.94;;;9.71;87.35
31331;BME280;34067;39.548;-76.088;2023-04-28T11:47:28;101719.45;;;10.38;86.56
31331;BME280;34067;39.548;-76.088;2023-04-28T11:49:57;101716.63;;;10.49;83.25
31331;BME280;34067;39.548;-76.088;2023-04-28T11:52:25;101714.55;;;9.96;86.35
31331;BME280;34067;39.548;-76.088;2023-04-28T11:54:53;101720.34;;;9.16;89.92
31331;BME280;34067;39.548;-76.088;2023-04-28T11:57:21;101714.21;;;9.71;89.71
31331;BME280;34067;39.548;-76.088;2023-04-28T11:59:49;101719.56;;;10.59;87.81
31331;BME280;34067;39.548;-76.088;2023-04-28T12:02:24;101713.65;;;10.40;89.42
31331;BME280;34067;39.548;-76.088;2023-04-28T12:04:52;101716.12;;;9.73;87.99
31331;BME280;34067;39.548;-76.088;2023-04-28T12:07:20;101723.21;;;10.91;87.77
31331;BME280;34067;39.548;-76.088;2023-04-28T12:10:10;101716.11;;;10.50;87.87
31331;BME280;34067;39.548;-76.088;2023-04-28T12:12:38;101720.22;;;10.47;86.53
31331;BME280;34067;39.548;-76.088;2023-04-28T12:15:07;101723.01;;;9.06;92.18
31331;BME280;34067;39.548;-76.088;2023-04-28T12:17:37;101717.46;;;9.11;93.75
31331;BME280;34067;39.548;-76.088;2023-04-28T12:20:07;101719.22;;;9.55;92.19
31331;BME280;34067;39.548;-76.088;2023-04-28T12:22:44;101715.43;;;9.65;90.58
31331;BME280;34067;39.548;-76.088;2023-04-28T12:25:14;101708.74;;;9.93;91.92
31331;BME280;34067;39.548;-76.088;2023-04-28T12:27:58;101716.09;;;10.64;86.62
31331;BME280;34067;39.548;-76.088;2023-04-28T12:30:27;101716.72;;;10.16;88.46
31331;BME280;34067;39.548;-76.088;2023-04-28T12:32:55;101716.18;;;9.80;88.62
31331;BME280;34067;39.548;-76.088;2023-04-28T12:35:24;101715.01;;;10.36;87.12
31331;BME280;34067;39.548;-76.088;2023-04-28T12:37:53;101716.10;;;10.68;87.79
31331;BME280;34067;39.548;-76.088;2023-04-28T12:40:21;101715.93;;;9.69;90.88
31331;BME280;34067;39.548;-76.088;2023-04-28T12:42:48;101716.94;;;10.64;88.93
31331;BME280;34067;39.548;-76.088;2023-04-28T12:45:16;101717.12;;;10.73;87.61